sensor_id;sensor_type;location;lat;lon;timestamp;P1;durP1;ratioP1;P2;durP2;ratioP2
74196;SDS011;62555;52.678;4.900;2022-10-16T00:02:07;7.35;;;2.63;;
74196;SDS011;62555;52.678;4.900;2022-10-16T00:04:32;3.13;;;1.67;;
74196;SDS011;62555;52.678;4.900;2022-10-16T00:06:57;3.15;;;1.58;;
74196;SDS011;62555;52.678;4.900;2022-10-16T00:09:23;3.15;;;1.30;;
74196;SDS011;62555;52.678;4.900;2022-10-16T00:11:48;2.92;;;1.17;;
74196;SDS011;62555;52.678;4.900;2022-10-16T00:14:14;3.97;;;1.10;;
74196;SDS011;62555;52.678;4.900;2022-10-16T00:16:40;2.30;;;1.10;;
74196;SDS011;62555;52.678;4.900;2022-10-16T00:19:05;2.58;;;1.23;;
74196;SDS011;62555;52.678;4.900;2022-10-16T00:21:31;2.28;;;0.82;;
74196;SDS011;62555;52.678;4.900;2022-10-16T00:23:57;1.88;;;1.00;;
74196;SDS011;62555;52.678;4.900;2022-10-16T00:26:25;2.47;;;1.00;;
74196;SDS011;62555;52.678;4.900;2022-10-16T00:28:51;2.08;;;1.05;;
74196;SDS011;62555;52.678;4.900;2022-10-16T00:31:17;1.10;;;0.90;;
74196;SDS011;62555;52.678;4.900;2022-10-16T00:33:44;3.35;;;1.10;;
74196;SDS011;62555;52.678;4.900;2022-10-16T00:36:10;1.92;;;0.90;;
74196;SDS011;62555;52.678;4.900;2022-10-16T00:38:37;1.83;;;0.85;;
74196;SDS011;62555;52.678;4.900;2022-10-16T00:41:02;3.17;;;0.85;;
74196;SDS011;62555;52.678;4.900;2022-10-16T00:43:33;2.20;;;1.00;;
74196;SDS011;62555;52.678;4.900;2022-10-16T00:46:02;1.40;;;0.90;;
74196;SDS011;62555;52.678;4.900;2022-10-16T00:48:29;2.47;;;1.00;;
74196;SDS011;62555;52.678;4.900;2022-10-16T00:50:55;2.78;;;1.00;;
74196;SDS011;62555;52.678;4.900;2022-10-16T00:53:22;2.10;;;0.93;;
74196;SDS011;62555;52.678;4.900;2022-10-16T00:55:48;1.48;;;0.70;;
74196;SDS011;62555;52.678;4.900;2022-10-16T00:58:13;1.45;;;0.65;;
74196;SDS011;62555;52.678;4.900;2022-10-16T01:00:39;2.97;;;1.10;;
74196;SDS011;62555;52.678;4.900;2022-10-16T01:03:21;2.17;;;1.08;;
74196;SDS011;62555;52.678;4.900;2022-10-16T01:05:49;2.30;;;1.02;;
74196;SDS011;62555;52.678;4.900;2022-10-16T01:08:21;1.42;;;0.93;;
74196;SDS011;62555;52.678;4.900;2022-10-16T01:11:11;1.67;;;1.05;;
74196;SDS011;62555;52.678;4.900;2022-10-16T01:13:59;2.65;;;1.27;;
74196;SDS011;62555;52.678;4.900;2022-10-16T01:19:02;2.47;;;0.80;;
74196;SDS011;62555;52.678;4.900;2022-10-16T01:21:35;2.45;;;1.20;;
74196;SDS011;62555;52.678;4.900;2022-10-16T01:24:12;1.67;;;0.88;;
74196;SDS011;62555;52.678;4.900;2022-10-16T01:29:11;2.20;;;1.00;;
74196;SDS011;62555;52.678;4.900;2022-10-16T01:31:44;2.97;;;1.05;;
74196;SDS011;62555;52.678;4.900;2022-10-16T01:34:18;1.73;;;1.00;;
74196;SDS011;62555;52.678;4.900;2022-10-16T01:36:53;0.75;;;0.63;;
74196;SDS011;62555;52.678;4.900;2022-10-16T01:39:22;1.15;;;0.73;;
74196;SDS011;62555;52.678;4.900;2022-10-16T01:41:55;2.20;;;0.75;;
74196;SDS011;62555;52.678;4.900;2022-10-16T01:44:27;2.42;;;1.30;;
74196;SDS011;62555;52.678;4.900;2022-10-16T01:46:54;0.85;;;0.70;;
74196;SDS011;62555;52.678;4.900;2022-10-16T01:49:21;1.63;;;0.73;;
74196;SDS011;62555;52.678;4.900;2022-10-16T01:51:47;2.00;;;0.88;;
74196;SDS011;62555;52.678;4.900;2022-10-16T01:54:14;2.13;;;0.90;;
74196;SDS011;62555;52.678;4.900;2022-10-16T01:56:42;2.05;;;1.00;;
74196;SDS011;62555;52.678;4.900;2022-10-16T01:59:15;1.50;;;0.88;;
74196;SDS011;62555;52.678;4.900;2022-10-16T02:01:42;3.05;;;1.25;;
74196;SDS011;62555;52.678;4.900;2022-10-16T02:04:15;0.85;;;0.77;;
74196;SDS011;62555;52.678;4.900;2022-10-16T02:06:44;1.08;;;0.90;;
74196;SDS011;62555;52.678;4.900;2022-10-16T02:09:09;1.17;;;1.08;;
74196;SDS011;62555;52.678;4.900;2022-10-16T02:11:35;2.25;;;0.80;;
74196;SDS011;62555;52.678;4.900;2022-10-16T02:14:02;0.90;;;0.70;;
74196;SDS011;62555;52.678;4.900;2022-10-16T02:16:42;2.33;;;0.98;;
74196;SDS011;62555;52.678;4.900;2022-10-16T02:19:09;1.55;;;1.05;;
74196;SDS011;62555;52.678;4.900;2022-10-16T02:24:14;1.58;;;0.90;;
74196;SDS011;62555;52.678;4.900;2022-10-16T02:26:48;2.10;;;1.13;;
74196;SDS011;62555;52.678;4.900;2022-10-16T02:29:20;1.95;;;0.90;;
74196;SDS011;62555;52.678;4.900;2022-10-16T02:31:50;1.50;;;0.90;;
74196;SDS011;62555;52.678;4.900;2022-10-16T02:34:18;1.15;;;0.82;;
74196;SDS011;62555;52.678;4.900;2022-10-16T02:36:44;1.90;;;1.08;;
74196;SDS011;62555;52.678;4.900;2022-10-16T02:39:10;0.93;;;0.85;;
74196;SDS011;62555;52.678;4.900;2022-10-16T02:41:36;3.28;;;1.45;;
74196;SDS011;62555;52.678;4.900;2022-10-16T02:44:02;1.05;;;0.65;;
74196;SDS011;62555;52.678;4.900;2022-10-16T02:46:27;1.63;;;1.05;;
74196;SDS011;62555;52.678;4.900;2022-10-16T02:48:52;2.20;;;1.00;;
74196;SDS011;62555;52.678;4.900;2022-10-16T02:51:18;1.58;;;0.80;;
74196;SDS011;62555;52.678;4.900;2022-10-16T02:53:43;2.22;;;0.90;;
74196;SDS011;62555;52.678;4.900;2022-10-16T02:56:08;1.05;;;0.70;;
74196;SDS011;62555;52.678;4.900;2022-10-16T02:58:34;1.38;;;0.98;;
74196;SDS011;62555;52.678;4.900;2022-10-16T03:00:59;1.65;;;0.80;;
74196;SDS011;62555;52.678;4.900;2022-10-16T03:03:25;2.17;;;0.90;;
74196;SDS011;62555;52.678;4.900;2022-10-16T03:05:50;1.73;;;0.90;;
74196;SDS011;62555;52.678;4.900;2022-10-16T03:08:15;2.15;;;1.20;;
74196;SDS011;62555;52.678;4.900;2022-10-16T03:10:41;2.67;;;1.20;;
74196;SDS011;62555;52.678;4.900;2022-10-16T03:13:06;2.40;;;0.75;;
74196;SDS011;62555;52.678;4.900;2022-10-16T03:15:31;1.83;;;0.80;;
74196;SDS011;62555;52.678;4.900;2022-10-16T03:17:57;1.27;;;0.73;;
74196;SDS011;62555;52.678;4.900;2022-10-16T03:20:23;1.40;;;0.88;;
74196;SDS011;62555;52.678;4.900;2022-10-16T03:22:49;1.98;;;0.98;;
74196;SDS011;62555;52.678;4.900;2022-10-16T03:25:14;2.28;;;1.10;;
74196;SDS011;62555;52.678;4.900;2022-10-16T03:27:39;1.67;;;0.93;;
74196;SDS011;62555;52.678;4.900;2022-10-16T03:30:05;1.80;;;0.80;;
74196;SDS011;62555;52.678;4.900;2022-10-16T03:32:30;1.58;;;0.80;;
74196;SDS011;62555;52.678;4.900;2022-10-16T03:34:56;1.50;;;0.85;;
74196;SDS011;62555;52.678;4.900;2022-10-16T03:37:21;1.83;;;0.73;;
74196;SDS011;62555;52.678;4.900;2022-10-16T03:39:47;1.70;;;0.75;;
74196;SDS011;62555;52.678;4.900;2022-10-16T03:42:12;2.13;;;0.90;;
74196;SDS011;62555;52.678;4.900;2022-10-16T03:44:37;1.75;;;0.90;;
74196;SDS011;62555;52.678;4.900;2022-10-16T03:47:03;1.75;;;0.75;;
74196;SDS011;62555;52.678;4.900;2022-10-16T03:49:28;2.58;;;1.05;;
74196;SDS011;62555;52.678;4.900;2022-10-16T03:51:54;1.65;;;0.80;;
74196;SDS011;62555;52.678;4.900;2022-10-16T03:54:20;1.45;;;1.00;;
74196;SDS011;62555;52.678;4.900;2022-10-16T03:56:47;1.90;;;0.90;;
74196;SDS011;62555;52.678;4.900;2022-10-16T03:59:12;1.98;;;1.02;;
74196;SDS011;62555;52.678;4.900;2022-10-16T04:01:37;1.30;;;0.73;;
74196;SDS011;62555;52.678;4.900;2022-10-16T04:04:03;1.70;;;0.90;;
74196;SDS011;62555;52.678;4.900;2022-10-16T04:06:28;2.70;;;1.23;;
74196;SDS011;62555;52.678;4.900;2022-10-16T04:08:53;2.80;;;1.13;;
74196;SDS011;62555;52.678;4.900;2022-10-16T04:11:19;1.35;;;0.80;;
74196;SDS011;62555;52.678;4.900;2022-10-16T04:13:44;1.20;;;0.70;;
74196;SDS011;62555;52.678;4.900;2022-10-16T04:16:09;1.67;;;0.90;;
74196;SDS011;62555;52.678;4.900;2022-10-16T04:18:35;2.58;;;0.90;;
74196;SDS011;62555;52.678;4.900;2022-10-16T04:21:03;2.95;;;0.90;;
74196;SDS011;62555;52.678;4.900;2022-10-16T04:23:29;2.83;;;1.10;;
74196;SDS011;62555;52.678;4.900;2022-10-16T04:25:55;1.55;;;0.77;;
74196;SDS011;62555;52.678;4.900;2022-10-16T04:28:20;1.65;;;0.80;;
74196;SDS011;62555;52.678;4.900;2022-10-16T04:30:45;1.98;;;1.00;;
74196;SDS011;62555;52.678;4.900;2022-10-16T04:33:11;1.95;;;0.90;;
74196;SDS011;62555;52.678;4.900;2022-10-16T04:35:37;1.52;;;1.00;;
74196;SDS011;62555;52.678;4.900;2022-10-16T04:38:03;2.50;;;0.77;;
74196;SDS011;62555;52.678;4.900;2022-10-16T04:40:28;2.70;;;1.00;;
74196;SDS011;62555;52.678;4.900;2022-10-16T04:42:53;1.80;;;0.90;;
74196;SDS011;62555;52.678;4.900;2022-10-16T04:45:19;0.80;;;0.80;;
74196;SDS011;62555;52.678;4.900;2022-10-16T04:47:44;2.25;;;1.00;;
74196;SDS011;62555;52.678;4.900;2022-10-16T04:50:09;1.77;;;0.80;;
74196;SDS011;62555;52.678;4.900;2022-10-16T04:52:35;2.78;;;0.90;;
74196;SDS011;62555;52.678;4.900;2022-10-16T04:55:01;2.20;;;0.80;;
74196;SDS011;62555;52.678;4.900;2022-10-16T04:57:28;1.20;;;0.90;;
74196;SDS011;62555;52.678;4.900;2022-10-16T04:59:54;1.73;;;1.00;;
74196;SDS011;62555;52.678;4.900;2022-10-16T05:02:19;0.90;;;0.73;;
74196;SDS011;62555;52.678;4.900;2022-10-16T05:04:45;2.17;;;1.10;;
74196;SDS011;62555;52.678;4.900;2022-10-16T05:07:10;3.10;;;1.00;;
74196;SDS011;62555;52.678;4.900;2022-10-16T05:09:36;1.83;;;1.23;;
74196;SDS011;62555;52.678;4.900;2022-10-16T05:12:01;2.13;;;0.82;;
74196;SDS011;62555;52.678;4.900;2022-10-16T05:14:28;1.35;;;1.10;;
74196;SDS011;62555;52.678;4.900;2022-10-16T05:16:53;1.58;;;0.90;;
74196;SDS011;62555;52.678;4.900;2022-10-16T05:19:19;1.95;;;0.90;;
74196;SDS011;62555;52.678;4.900;2022-10-16T05:21:44;1.30;;;1.00;;
74196;SDS011;62555;52.678;4.900;2022-10-16T05:24:10;1.60;;;1.13;;
74196;SDS011;62555;52.678;4.900;2022-10-16T05:26:35;1.88;;;0.93;;
74196;SDS011;62555;52.678;4.900;2022-10-16T05:29:00;1.67;;;1.00;;
74196;SDS011;62555;52.678;4.900;2022-10-16T05:31:26;1.10;;;0.75;;
74196;SDS011;62555;52.678;4.900;2022-10-16T05:33:51;1.75;;;1.00;;
74196;SDS011;62555;52.678;4.900;2022-10-16T05:36:16;1.38;;;0.90;;
74196;SDS011;62555;52.678;4.900;2022-10-16T05:38:43;2.88;;;1.40;;
74196;SDS011;62555;52.678;4.900;2022-10-16T05:41:08;2.30;;;1.10;;
74196;SDS011;62555;52.678;4.900;2022-10-16T05:43:34;1.90;;;0.82;;
74196;SDS011;62555;52.678;4.900;2022-10-16T05:46:00;1.27;;;1.10;;
74196;SDS011;62555;52.678;4.900;2022-10-16T05:48:27;2.47;;;0.80;;
74196;SDS011;62555;52.678;4.900;2022-10-16T05:51:11;1.10;;;0.80;;
74196;SDS011;62555;52.678;4.900;2022-10-16T05:53:38;3.05;;;1.17;;
74196;SDS011;62555;52.678;4.900;2022-10-16T05:56:05;1.27;;;0.90;;
74196;SDS011;62555;52.678;4.900;2022-10-16T05:58:33;1.95;;;1.00;;
74196;SDS011;62555;52.678;4.900;2022-10-16T06:01:04;2.38;;;1.00;;
74196;SDS011;62555;52.678;4.900;2022-10-16T06:03:32;2.75;;;1.10;;
74196;SDS011;62555;52.678;4.900;2022-10-16T06:05:57;1.27;;;0.80;;
74196;SDS011;62555;52.678;4.900;2022-10-16T06:08:23;1.65;;;0.98;;
74196;SDS011;62555;52.678;4.900;2022-10-16T06:10:49;1.70;;;1.00;;
74196;SDS011;62555;52.678;4.900;2022-10-16T06:13:15;2.22;;;0.88;;
74196;SDS011;62555;52.678;4.900;2022-10-16T06:15:41;2.17;;;1.25;;
74196;SDS011;62555;52.678;4.900;2022-10-16T06:18:10;1.75;;;0.90;;
74196;SDS011;62555;52.678;4.900;2022-10-16T06:20:35;2.60;;;0.98;;
74196;SDS011;62555;52.678;4.900;2022-10-16T06:23:01;3.20;;;1.00;;
74196;SDS011;62555;52.678;4.900;2022-10-16T06:25:27;3.13;;;0.85;;
74196;SDS011;62555;52.678;4.900;2022-10-16T06:27:52;2.08;;;0.80;;
74196;SDS011;62555;52.678;4.900;2022-10-16T06:30:17;2.63;;;1.40;;
74196;SDS011;62555;52.678;4.900;2022-10-16T06:32:42;1.90;;;1.13;;
74196;SDS011;62555;52.678;4.900;2022-10-16T06:35:08;1.25;;;0.80;;
74196;SDS011;62555;52.678;4.900;2022-10-16T06:37:33;1.42;;;1.17;;
74196;SDS011;62555;52.678;4.900;2022-10-16T06:39:58;1.15;;;0.90;;
74196;SDS011;62555;52.678;4.900;2022-10-16T06:42:25;1.27;;;0.90;;
74196;SDS011;62555;52.678;4.900;2022-10-16T06:44:50;1.50;;;1.00;;
74196;SDS011;62555;52.678;4.900;2022-10-16T06:47:15;1.42;;;1.00;;
74196;SDS011;62555;52.678;4.900;2022-10-16T06:49:41;4.00;;;1.10;;
74196;SDS011;62555;52.678;4.900;2022-10-16T06:52:06;2.35;;;1.50;;
74196;SDS011;62555;52.678;4.900;2022-10-16T06:54:31;2.03;;;1.52;;
74196;SDS011;62555;52.678;4.900;2022-10-16T06:56:57;2.42;;;1.10;;
74196;SDS011;62555;52.678;4.900;2022-10-16T06:59:22;1.60;;;1.30;;
74196;SDS011;62555;52.678;4.900;2022-10-16T07:01:47;2.15;;;1.00;;
74196;SDS011;62555;52.678;4.900;2022-10-16T07:04:13;1.67;;;1.00;;
74196;SDS011;62555;52.678;4.900;2022-10-16T07:06:38;2.13;;;0.93;;
74196;SDS011;62555;52.678;4.900;2022-10-16T07:09:04;3.45;;;0.93;;
74196;SDS011;62555;52.678;4.900;2022-10-16T07:13:56;2.03;;;1.17;;
74196;SDS011;62555;52.678;4.900;2022-10-16T07:16:26;1.65;;;1.00;;
74196;SDS011;62555;52.678;4.900;2022-10-16T07:18:53;2.17;;;1.20;;
74196;SDS011;62555;52.678;4.900;2022-10-16T07:21:23;3.05;;;1.10;;
74196;SDS011;62555;52.678;4.900;2022-10-16T07:23:53;2.17;;;1.20;;
74196;SDS011;62555;52.678;4.900;2022-10-16T07:26:20;2.17;;;0.90;;
74196;SDS011;62555;52.678;4.900;2022-10-16T07:28:46;3.08;;;1.20;;
74196;SDS011;62555;52.678;4.900;2022-10-16T07:31:12;2.55;;;1.27;;
74196;SDS011;62555;52.678;4.900;2022-10-16T07:33:39;1.77;;;1.02;;
74196;SDS011;62555;52.678;4.900;2022-10-16T07:36:05;1.25;;;1.13;;
74196;SDS011;62555;52.678;4.900;2022-10-16T07:38:30;2.47;;;1.15;;
74196;SDS011;62555;52.678;4.900;2022-10-16T07:40:57;3.22;;;1.50;;
74196;SDS011;62555;52.678;4.900;2022-10-16T07:43:23;2.47;;;1.50;;
74196;SDS011;62555;52.678;4.900;2022-10-16T07:45:49;2.55;;;1.33;;
74196;SDS011;62555;52.678;4.900;2022-10-16T07:48:15;2.60;;;1.40;;
74196;SDS011;62555;52.678;4.900;2022-10-16T07:50:41;3.28;;;1.30;;
74196;SDS011;62555;52.678;4.900;2022-10-16T07:53:07;2.15;;;1.38;;
74196;SDS011;62555;52.678;4.900;2022-10-16T07:55:32;3.45;;;2.15;;
74196;SDS011;62555;52.678;4.900;2022-10-16T07:57:57;1.95;;;1.20;;
74196;SDS011;62555;52.678;4.900;2022-10-16T08:00:23;3.72;;;1.77;;
74196;SDS011;62555;52.678;4.900;2022-10-16T08:02:48;2.30;;;1.27;;
74196;SDS011;62555;52.678;4.900;2022-10-16T08:05:13;2.28;;;1.90;;
74196;SDS011;62555;52.678;4.900;2022-10-16T08:07:39;3.40;;;1.80;;
74196;SDS011;62555;52.678;4.900;2022-10-16T08:10:04;4.10;;;2.00;;
74196;SDS011;62555;52.678;4.900;2022-10-16T08:12:30;4.88;;;2.20;;
74196;SDS011;62555;52.678;4.900;2022-10-16T08:14:55;4.05;;;1.92;;
74196;SDS011;62555;52.678;4.900;2022-10-16T08:17:20;4.78;;;1.80;;
74196;SDS011;62555;52.678;4.900;2022-10-16T08:19:46;4.68;;;2.13;;
74196;SDS011;62555;52.678;4.900;2022-10-16T08:22:12;2.40;;;1.60;;
74196;SDS011;62555;52.678;4.900;2022-10-16T08:24:41;3.63;;;2.00;;
74196;SDS011;62555;52.678;4.900;2022-10-16T08:27:06;3.47;;;2.55;;
74196;SDS011;62555;52.678;4.900;2022-10-16T08:29:32;3.92;;;2.28;;
74196;SDS011;62555;52.678;4.900;2022-10-16T08:31:58;2.97;;;1.75;;
74196;SDS011;62555;52.678;4.900;2022-10-16T08:34:23;4.82;;;2.20;;
74196;SDS011;62555;52.678;4.900;2022-10-16T08:36:48;4.65;;;1.98;;
74196;SDS011;62555;52.678;4.900;2022-10-16T08:39:14;3.70;;;1.75;;
74196;SDS011;62555;52.678;4.900;2022-10-16T08:44:24;4.70;;;1.98;;
74196;SDS011;62555;52.678;4.900;2022-10-16T08:46:56;3.83;;;1.83;;
74196;SDS011;62555;52.678;4.900;2022-10-16T08:49:27;3.28;;;1.60;;
74196;SDS011;62555;52.678;4.900;2022-10-16T08:51:52;5.72;;;1.88;;
74196;SDS011;62555;52.678;4.900;2022-10-16T08:54:23;4.13;;;2.15;;
74196;SDS011;62555;52.678;4.900;2022-10-16T08:56:56;5.32;;;2.40;;
74196;SDS011;62555;52.678;4.900;2022-10-16T08:59:22;5.53;;;2.05;;
74196;SDS011;62555;52.678;4.900;2022-10-16T09:01:49;5.05;;;1.75;;
74196;SDS011;62555;52.678;4.900;2022-10-16T09:06:54;4.57;;;1.42;;
74196;SDS011;62555;52.678;4.900;2022-10-16T09:09:29;6.18;;;2.22;;
74196;SDS011;62555;52.678;4.900;2022-10-16T09:19:45;6.05;;;1.92;;
74196;SDS011;62555;52.678;4.900;2022-10-16T09:22:14;4.55;;;2.00;;
74196;SDS011;62555;52.678;4.900;2022-10-16T09:24:41;4.70;;;2.13;;
74196;SDS011;62555;52.678;4.900;2022-10-16T09:27:09;4.68;;;1.73;;
74196;SDS011;62555;52.678;4.900;2022-10-16T09:29:35;4.50;;;1.42;;
74196;SDS011;62555;52.678;4.900;2022-10-16T09:32:07;6.03;;;2.42;;
74196;SDS011;62555;52.678;4.900;2022-10-16T09:34:42;6.10;;;2.17;;
74196;SDS011;62555;52.678;4.900;2022-10-16T09:37:09;3.88;;;2.13;;
74196;SDS011;62555;52.678;4.900;2022-10-16T09:39:47;4.85;;;1.85;;
74196;SDS011;62555;52.678;4.900;2022-10-16T09:42:17;5.95;;;1.70;;
74196;SDS011;62555;52.678;4.900;2022-10-16T09:44:46;8.57;;;2.35;;
74196;SDS011;62555;52.678;4.900;2022-10-16T09:49:49;6.15;;;1.70;;
74196;SDS011;62555;52.678;4.900;2022-10-16T09:52:16;5.28;;;1.55;;
74196;SDS011;62555;52.678;4.900;2022-10-16T09:54:54;4.53;;;1.85;;
74196;SDS011;62555;52.678;4.900;2022-10-16T09:57:21;7.72;;;1.83;;
74196;SDS011;62555;52.678;4.900;2022-10-16T09:59:47;5.75;;;2.03;;
74196;SDS011;62555;52.678;4.900;2022-10-16T10:02:14;6.50;;;2.00;;
74196;SDS011;62555;52.678;4.900;2022-10-16T10:04:43;3.55;;;1.33;;
74196;SDS011;62555;52.678;4.900;2022-10-16T10:07:24;6.50;;;1.63;;
74196;SDS011;62555;52.678;4.900;2022-10-16T10:09:51;4.78;;;1.50;;
74196;SDS011;62555;52.678;4.900;2022-10-16T10:12:18;7.63;;;1.83;;
74196;SDS011;62555;52.678;4.900;2022-10-16T10:14:55;6.65;;;1.80;;
74196;SDS011;62555;52.678;4.900;2022-10-16T10:17:22;9.00;;;2.22;;
74196;SDS011;62555;52.678;4.900;2022-10-16T10:19:53;7.72;;;2.47;;
74196;SDS011;62555;52.678;4.900;2022-10-16T10:22:29;7.47;;;1.98;;
74196;SDS011;62555;52.678;4.900;2022-10-16T10:27:32;5.93;;;1.38;;
74196;SDS011;62555;52.678;4.900;2022-10-16T10:30:05;5.72;;;1.60;;
74196;SDS011;62555;52.678;4.900;2022-10-16T10:32:41;7.15;;;1.45;;
74196;SDS011;62555;52.678;4.900;2022-10-16T10:37:51;6.28;;;1.85;;
74196;SDS011;62555;52.678;4.900;2022-10-16T10:43:11;5.40;;;2.20;;
74196;SDS011;62555;52.678;4.900;2022-10-16T10:45:44;7.63;;;2.22;;
74196;SDS011;62555;52.678;4.900;2022-10-16T10:48:17;7.63;;;1.42;;
74196;SDS011;62555;52.678;4.900;2022-10-16T10:57:29;9.95;;;2.10;;
74196;SDS011;62555;52.678;4.900;2022-10-16T11:02:48;7.70;;;1.67;;
74196;SDS011;62555;52.678;4.900;2022-10-16T11:08:00;8.80;;;1.77;;
74196;SDS011;62555;52.678;4.900;2022-10-16T11:10:33;6.28;;;1.48;;
74196;SDS011;62555;52.678;4.900;2022-10-16T11:13:26;5.22;;;1.67;;
74196;SDS011;62555;52.678;4.900;2022-10-16T11:15:52;6.40;;;1.45;;
74196;SDS011;62555;52.678;4.900;2022-10-16T11:18:21;8.98;;;1.70;;
74196;SDS011;62555;52.678;4.900;2022-10-16T11:21:03;5.85;;;1.60;;
74196;SDS011;62555;52.678;4.900;2022-10-16T11:23:34;5.95;;;1.42;;
74196;SDS011;62555;52.678;4.900;2022-10-16T11:26:04;6.35;;;1.95;;
74196;SDS011;62555;52.678;4.900;2022-10-16T11:28:33;6.40;;;1.40;;
74196;SDS011;62555;52.678;4.900;2022-10-16T11:33:43;6.00;;;1.75;;
74196;SDS011;62555;52.678;4.900;2022-10-16T11:36:25;20.00;;;12.50;;
74196;SDS011;62555;52.678;4.900;2022-10-16T11:39:04;98.65;;;69.65;;
74196;SDS011;62555;52.678;4.900;2022-10-16T11:44:16;43.75;;;24.98;;
74196;SDS011;62555;52.678;4.900;2022-10-16T11:47:09;22.85;;;10.13;;
74196;SDS011;62555;52.678;4.900;2022-10-16T11:55:49;11.30;;;2.42;;
74196;SDS011;62555;52.678;4.900;2022-10-16T12:00:53;371.95;;;307.80;;
74196;SDS011;62555;52.678;4.900;2022-10-16T12:03:26;641.83;;;564.10;;
74196;SDS011;62555;52.678;4.900;2022-10-16T12:08:43;1200.72;;;846.75;;
74196;SDS011;62555;52.678;4.900;2022-10-16T12:11:19;1152.65;;;821.08;;
74196;SDS011;62555;52.678;4.900;2022-10-16T12:13:48;1125.28;;;795.05;;
74196;SDS011;62555;52.678;4.900;2022-10-16T12:18:45;1039.97;;;744.10;;
74196;SDS011;62555;52.678;4.900;2022-10-16T12:21:12;871.85;;;649.95;;
74196;SDS011;62555;52.678;4.900;2022-10-16T12:23:51;781.83;;;576.40;;
74196;SDS011;62555;52.678;4.900;2022-10-16T12:26:27;665.22;;;485.90;;
74196;SDS011;62555;52.678;4.900;2022-10-16T12:28:54;620.47;;;433.85;;
74196;SDS011;62555;52.678;4.900;2022-10-16T12:31:20;599.78;;;450.58;;
74196;SDS011;62555;52.678;4.900;2022-10-16T12:33:55;555.22;;;416.88;;
74196;SDS011;62555;52.678;4.900;2022-10-16T12:36:29;774.97;;;618.30;;
74196;SDS011;62555;52.678;4.900;2022-10-16T12:38:56;854.38;;;668.13;;
74196;SDS011;62555;52.678;4.900;2022-10-16T12:43:56;755.55;;;578.58;;
74196;SDS011;62555;52.678;4.900;2022-10-16T12:49:04;602.65;;;447.58;;
74196;SDS011;62555;52.678;4.900;2022-10-16T12:53:57;627.87;;;466.63;;
74196;SDS011;62555;52.678;4.900;2022-10-16T12:56:24;793.92;;;614.97;;
74196;SDS011;62555;52.678;4.900;2022-10-16T13:01:57;796.63;;;589.83;;
74196;SDS011;62555;52.678;4.900;2022-10-16T13:04:47;642.03;;;462.92;;
74196;SDS011;62555;52.678;4.900;2022-10-16T13:12:45;728.05;;;558.08;;
74196;SDS011;62555;52.678;4.900;2022-10-16T13:21:25;824.22;;;615.65;;
74196;SDS011;62555;52.678;4.900;2022-10-16T13:23:37;1015.88;;;734.80;;
74196;SDS011;62555;52.678;4.900;2022-10-16T13:28:45;1025.95;;;715.47;;
74196;SDS011;62555;52.678;4.900;2022-10-16T13:31:15;1041.22;;;729.60;;
74196;SDS011;62555;52.678;4.900;2022-10-16T13:33:45;1036.38;;;727.97;;
74196;SDS011;62555;52.678;4.900;2022-10-16T13:36:19;1061.82;;;731.05;;
74196;SDS011;62555;52.678;4.900;2022-10-16T13:38:59;989.25;;;690.80;;
74196;SDS011;62555;52.678;4.900;2022-10-16T13:41:44;958.58;;;670.40;;
74196;SDS011;62555;52.678;4.900;2022-10-16T13:44:14;824.30;;;583.67;;
74196;SDS011;62555;52.678;4.900;2022-10-16T13:46:41;701.33;;;494.42;;
74196;SDS011;62555;52.678;4.900;2022-10-16T13:54:04;370.70;;;214.83;;
74196;SDS011;62555;52.678;4.900;2022-10-16T13:56:30;258.63;;;141.45;;
74196;SDS011;62555;52.678;4.900;2022-10-16T13:59:04;149.77;;;81.20;;
74196;SDS011;62555;52.678;4.900;2022-10-16T14:04:06;271.15;;;197.50;;
74196;SDS011;62555;52.678;4.900;2022-10-16T14:06:33;437.02;;;339.23;;
74196;SDS011;62555;52.678;4.900;2022-10-16T14:08:59;516.00;;;409.77;;
74196;SDS011;62555;52.678;4.900;2022-10-16T14:11:25;767.22;;;624.08;;
74196;SDS011;62555;52.678;4.900;2022-10-16T14:13:51;931.60;;;707.78;;
74196;SDS011;62555;52.678;4.900;2022-10-16T14:16:18;931.97;;;709.58;;
74196;SDS011;62555;52.678;4.900;2022-10-16T14:18:58;808.45;;;618.53;;
74196;SDS011;62555;52.678;4.900;2022-10-16T14:21:25;939.40;;;692.30;;
74196;SDS011;62555;52.678;4.900;2022-10-16T14:23:51;965.53;;;709.88;;
74196;SDS011;62555;52.678;4.900;2022-10-16T14:26:18;781.33;;;592.08;;
74196;SDS011;62555;52.678;4.900;2022-10-16T14:28:45;953.45;;;711.63;;
74196;SDS011;62555;52.678;4.900;2022-10-16T14:31:22;1170.97;;;806.63;;
74196;SDS011;62555;52.678;4.900;2022-10-16T14:33:53;1226.22;;;810.50;;
74196;SDS011;62555;52.678;4.900;2022-10-16T14:36:18;1127.60;;;762.60;;
74196;SDS011;62555;52.678;4.900;2022-10-16T14:41:15;946.65;;;659.53;;
74196;SDS011;62555;52.678;4.900;2022-10-16T14:43:41;854.03;;;594.95;;
74196;SDS011;62555;52.678;4.900;2022-10-16T14:46:17;753.03;;;523.60;;
74196;SDS011;62555;52.678;4.900;2022-10-16T14:48:45;668.83;;;455.65;;
74196;SDS011;62555;52.678;4.900;2022-10-16T14:51:16;547.72;;;354.08;;
74196;SDS011;62555;52.678;4.900;2022-10-16T14:53:42;452.50;;;279.38;;
74196;SDS011;62555;52.678;4.900;2022-10-16T14:56:08;407.27;;;234.63;;
74196;SDS011;62555;52.678;4.900;2022-10-16T14:58:42;280.20;;;154.05;;
74196;SDS011;62555;52.678;4.900;2022-10-16T15:01:08;284.75;;;157.30;;
74196;SDS011;62555;52.678;4.900;2022-10-16T15:03:35;271.77;;;156.00;;
74196;SDS011;62555;52.678;4.900;2022-10-16T15:06:01;487.00;;;372.73;;
74196;SDS011;62555;52.678;4.900;2022-10-16T15:08:26;586.38;;;463.65;;
74196;SDS011;62555;52.678;4.900;2022-10-16T15:10:51;784.75;;;632.17;;
74196;SDS011;62555;52.678;4.900;2022-10-16T15:13:17;778.47;;;614.55;;
74196;SDS011;62555;52.678;4.900;2022-10-16T15:15:43;766.42;;;595.03;;
74196;SDS011;62555;52.678;4.900;2022-10-16T15:18:09;692.45;;;526.10;;
74196;SDS011;62555;52.678;4.900;2022-10-16T15:20:36;610.33;;;443.88;;
74196;SDS011;62555;52.678;4.900;2022-10-16T15:23:03;524.60;;;362.52;;
74196;SDS011;62555;52.678;4.900;2022-10-16T15:25:37;455.40;;;298.15;;
74196;SDS011;62555;52.678;4.900;2022-10-16T15:28:06;384.05;;;228.45;;
74196;SDS011;62555;52.678;4.900;2022-10-16T15:30:32;407.65;;;266.45;;
74196;SDS011;62555;52.678;4.900;2022-10-16T15:32:58;550.30;;;402.67;;
74196;SDS011;62555;52.678;4.900;2022-10-16T15:35:24;512.25;;;357.20;;
74196;SDS011;62555;52.678;4.900;2022-10-16T15:37:49;562.22;;;411.60;;
74196;SDS011;62555;52.678;4.900;2022-10-16T15:40:15;511.83;;;359.67;;
74196;SDS011;62555;52.678;4.900;2022-10-16T15:45:08;435.17;;;277.50;;
74196;SDS011;62555;52.678;4.900;2022-10-16T15:47:34;609.95;;;434.20;;
74196;SDS011;62555;52.678;4.900;2022-10-16T15:49:59;1035.93;;;736.25;;
74196;SDS011;62555;52.678;4.900;2022-10-16T15:52:24;1022.70;;;727.28;;
74196;SDS011;62555;52.678;4.900;2022-10-16T15:54:50;1214.07;;;797.00;;
74196;SDS011;62555;52.678;4.900;2022-10-16T15:57:15;1246.57;;;808.67;;
74196;SDS011;62555;52.678;4.900;2022-10-16T15:59:40;1380.35;;;846.38;;
74196;SDS011;62555;52.678;4.900;2022-10-16T16:02:06;1597.40;;;941.90;;
74196;SDS011;62555;52.678;4.900;2022-10-16T16:04:32;1589.90;;;949.03;;
74196;SDS011;62555;52.678;4.900;2022-10-16T16:06:58;1604.78;;;981.67;;
74196;SDS011;62555;52.678;4.900;2022-10-16T16:09:23;1606.07;;;993.38;;
74196;SDS011;62555;52.678;4.900;2022-10-16T16:11:49;1609.72;;;999.90;;
74196;SDS011;62555;52.678;4.900;2022-10-16T16:14:16;1613.85;;;999.90;;
74196;SDS011;62555;52.678;4.900;2022-10-16T16:16:41;1621.60;;;999.90;;
74196;SDS011;62555;52.678;4.900;2022-10-16T16:19:07;1634.47;;;999.90;;
74196;SDS011;62555;52.678;4.900;2022-10-16T16:21:34;1641.40;;;999.90;;